createdAt,value
2023-05-05T00:02:37.686Z,100700.09
2023-05-05T00:05:40.604Z,100698.94
2023-05-05T00:08:43.147Z,100686.50
2023-05-05T00:11:45.842Z,100703.91
2023-05-05T00:14:48.394Z,100705.72
2023-05-05T00:17:51.179Z,100702.63
2023-05-05T00:20:53.912Z,100697.25
2023-05-05T00:23:56.569Z,100699.94
2023-05-05T00:26:59.306Z,100702.47
2023-05-05T00:30:02.107Z,100694.50
2023-05-05T00:33:04.817Z,100693.91
2023-05-05T00:36:07.702Z,100693.56
2023-05-05T00:39:10.975Z,100698.91
2023-05-05T00:42:13.561Z,100686.06
2023-05-05T00:45:17.006Z,100690.84
2023-05-05T00:48:19.684Z,100685.66
2023-05-05T00:51:22.966Z,100675.31
2023-05-05T00:54:25.719Z,100675.78
2023-05-05T00:57:28.664Z,100684.44
2023-05-05T01:00:31.759Z,100685.78
2023-05-05T01:03:37.353Z,100680.38
2023-05-05T01:07:06.420Z,100688.84
2023-05-05T01:10:41.287Z,100682.94
2023-05-05T01:13:59.233Z,100692.38
2023-05-05T01:17:10.524Z,100667.47
2023-05-05T01:20:40.924Z,100669.31
2023-05-05T01:24:19.894Z,100666.84
2023-05-05T01:27:47.582Z,100688.25
2023-05-05T01:31:09.499Z,100687.44
2023-05-05T01:34:14.928Z,100665.16
2023-05-05T01:37:32.513Z,100686.31
2023-05-05T01:40:42.039Z,100679.47
2023-05-05T01:43:47.630Z,100686.38
2023-05-05T01:46:52.126Z,100683.97
2023-05-05T01:49:54.661Z,100685.63
2023-05-05T01:52:57.921Z,100678.44
2023-05-05T01:56:01.528Z,100674.19
2023-05-05T01:59:05.077Z,100670.94
2023-05-05T02:02:10.583Z,100665.66
2023-05-05T02:05:14.354Z,100670.72
2023-05-05T02:08:17.651Z,100676.84
2023-05-05T02:11:21.925Z,100666.16
2023-05-05T02:14:26.759Z,100663.16
2023-05-05T02:17:30.190Z,100675.47
2023-05-05T02:20:33.424Z,100672.34
2023-05-05T02:23:36.547Z,100670.97
2023-05-05T02:26:40.814Z,100683.03
2023-05-05T02:29:58.058Z,100672.66
2023-05-05T02:33:09.484Z,100650.31
2023-05-05T02:36:26.231Z,100680.16
2023-05-05T02:39:47.377Z,100676.44
2023-05-05T02:42:55.937Z,100677.00
2023-05-05T02:46:03.969Z,100681.03
2023-05-05T02:49:08.169Z,100675.81
2023-05-05T02:52:12.359Z,100671.97
2023-05-05T02:55:16.705Z,100675.09
2023-05-05T02:58:29.344Z,100674.00
2023-05-05T03:01:53.886Z,100668.31
2023-05-05T03:05:11.119Z,100668.25
2023-05-05T03:08:27.177Z,100666.78
2023-05-05T03:11:36.268Z,100672.38
2023-05-05T03:14:43.454Z,100666.59
2023-05-05T03:17:50.632Z,100673.34
2023-05-05T03:20:53.631Z,100651.50
2023-05-05T03:23:58.403Z,100687.41
2023-05-05T03:27:01.628Z,100682.69
2023-05-05T03:30:09.822Z,100679.91
2023-05-05T03:33:20.429Z,100669.91
2023-05-05T03:36:23.128Z,100683.53
2023-05-05T03:39:26.365Z,100674.94
2023-05-05T03:42:30.117Z,100672.75
2023-05-05T03:45:33.298Z,100669.56
2023-05-05T03:48:36.163Z,100680.66
2023-05-05T03:51:39.175Z,100687.16
2023-05-05T03:54:42.623Z,100690.31
2023-05-05T03:57:46.138Z,100694.53
2023-05-05T04:00:48.761Z,100677.41
2023-05-05T04:03:52.300Z,100694.34
2023-05-05T04:06:56.036Z,100691.19
2023-05-05T04:09:58.616Z,100691.59
2023-05-05T04:13:01.582Z,100700.66
2023-05-05T04:16:06.630Z,100700.38
2023-05-05T04:19:09.374Z,100686.31
2023-05-05T04:22:11.997Z,100692.31
2023-05-05T04:25:14.993Z,100685.78
2023-05-05T04:28:19.592Z,100694.22
2023-05-05T04:31:23.825Z,100696.34
2023-05-05T04:34:27.278Z,100689.50
2023-05-05T04:37:30.436Z,100676.84
2023-05-05T04:40:38.237Z,100674.19
2023-05-05T04:43:41.622Z,100693.50
2023-05-05T04:46:44.504Z,100704.38
2023-05-05T04:49:47.198Z,100708.69
2023-05-05T04:52:51.378Z,100704.56
2023-05-05T04:55:55.326Z,100721.75
2023-05-05T04:58:57.905Z,100701.09
2023-05-05T05:02:00.892Z,100718.38
2023-05-05T05:05:04.035Z,100718.41
2023-05-05T05:08:06.820Z,100722.50
2023-05-05T05:11:09.495Z,100722.09
2023-05-05T05:14:12.583Z,100718.63
2023-05-05T05:17:15.554Z,100663.28
2023-05-05T05:20:19.206Z,100684.75
2023-05-05T05:23:22.965Z,100658.59
2023-05-05T05:26:25.752Z,100682.06
2023-05-05T05:29:28.540Z,100719.00
2023-05-05T05:32:32.891Z,100728.38
2023-05-05T05:35:35.888Z,100714.25
2023-05-05T05:38:39.450Z,100649.13
2023-05-05T05:41:43.080Z,100684.81
2023-05-05T05:44:46.243Z,100660.53
2023-05-05T05:47:49.713Z,100721.88
2023-05-05T05:50:52.858Z,100716.31
2023-05-05T05:54:03.706Z,100704.63
2023-05-05T05:57:07.104Z,100691.47
2023-05-05T06:00:10.910Z,100703.50
2023-05-05T06:03:38.171Z,100663.97
2023-05-05T06:06:44.827Z,100731.00
2023-05-05T06:09:48.239Z,100726.56
2023-05-05T06:12:51.021Z,100735.34
2023-05-05T06:15:54.415Z,100701.41
2023-05-05T06:18:57.185Z,100730.78
2023-05-05T06:22:00.465Z,100676.09
2023-05-05T06:25:03.606Z,100693.81
2023-05-05T06:28:06.393Z,100740.88
2023-05-05T06:31:09.262Z,100673.81
2023-05-05T06:34:12.282Z,100745.09
2023-05-05T06:37:15.318Z,100734.41
2023-05-05T06:40:18.510Z,100672.28
2023-05-05T06:43:22.107Z,100736.75
2023-05-05T06:46:30.242Z,100684.94
2023-05-05T06:49:33.294Z,100733.13
2023-05-05T06:52:36.249Z,100743.38
2023-05-05T06:55:39.143Z,100741.66
2023-05-05T06:58:42.429Z,100746.25
2023-05-05T07:01:52.025Z,100693.25
2023-05-05T07:04:55.700Z,100699.41
2023-05-05T07:08:01.851Z,100739.28
2023-05-05T07:11:04.786Z,100677.59
2023-05-05T07:14:10.515Z,100671.53
2023-05-05T07:17:13.460Z,100683.56
2023-05-05T07:20:16.520Z,100683.91
2023-05-05T07:23:19.257Z,100685.16
2023-05-05T07:26:22.129Z,100742.06
2023-05-05T07:29:25.038Z,100732.63
2023-05-05T07:32:29.938Z,100708.97
2023-05-05T07:35:32.758Z,100731.34
2023-05-05T07:38:35.455Z,100737.53
2023-05-05T07:41:38.178Z,100738.81
2023-05-05T07:44:40.902Z,100745.25
2023-05-05T07:47:43.952Z,100732.28
2023-05-05T07:50:48.659Z,100747.41
2023-05-05T07:53:51.650Z,100677.38
2023-05-05T07:56:54.975Z,100718.97
2023-05-05T07:59:59.046Z,100735.22
2023-05-05T08:03:01.889Z,100705.88
2023-05-05T08:06:09.640Z,100739.31
2023-05-05T08:09:12.404Z,100692.09
2023-05-05T08:12:15.493Z,100746.53
2023-05-05T08:15:18.415Z,100727.44
2023-05-05T08:18:21.325Z,100675.47
2023-05-05T08:21:24.065Z,100730.88
2023-05-05T08:24:27.521Z,100720.00
2023-05-05T08:27:30.619Z,100674.09
2023-05-05T08:30:33.349Z,100703.03
2023-05-05T08:33:36.142Z,100677.56
2023-05-05T08:36:39.133Z,100736.31
2023-05-05T08:39:43.366Z,100723.00
2023-05-05T08:42:47.002Z,100725.75
2023-05-05T08:45:53.991Z,100727.59
2023-05-05T08:48:57.890Z,100713.28
2023-05-05T08:52:01.878Z,100712.28
2023-05-05T08:55:25.722Z,100726.97
2023-05-05T08:58:30.680Z,100656.38
2023-05-05T09:01:34.159Z,100702.25
2023-05-05T09:04:37.254Z,100693.66
2023-05-05T09:07:44.245Z,100718.63
2023-05-05T09:10:49.171Z,100677.09
2023-05-05T09:13:51.954Z,100665.31
2023-05-05T09:16:55.172Z,100652.09
2023-05-05T09:20:04.894Z,100651.06
2023-05-05T09:23:12.911Z,100647.47
2023-05-05T09:26:15.879Z,100680.19
2023-05-05T09:29:22.762Z,100675.56
2023-05-05T09:32:26.320Z,100662.66
2023-05-05T09:35:47.832Z,100662.16
2023-05-05T09:39:08.952Z,100698.03
2023-05-05T09:42:20.972Z,100673.47
2023-05-05T09:45:23.700Z,100697.50
2023-05-05T09:48:31.567Z,100688.31
2023-05-05T09:51:34.813Z,100659.25
2023-05-05T09:54:37.794Z,100642.81
2023-05-05T09:57:41.070Z,100629.88
2023-05-05T10:00:44.313Z,100651.44
2023-05-05T10:03:53.874Z,100678.69
2023-05-05T10:06:58.127Z,100638.25
2023-05-05T10:10:01.001Z,100606.69
2023-05-05T10:13:04.137Z,100637.41
2023-05-05T10:16:11.616Z,100614.78
2023-05-05T10:19:16.551Z,100613.72
2023-05-05T10:22:22.918Z,100667.88
2023-05-05T10:25:33.771Z,100613.97
2023-05-05T10:32:56.931Z,100661.09
2023-05-05T10:36:00.888Z,100645.69
2023-05-05T10:39:03.556Z,100650.25
2023-05-05T10:42:06.547Z,100650.97
2023-05-05T10:45:09.818Z,100641.75
2023-05-05T10:48:19.484Z,100643.06
2023-05-05T10:51:40.330Z,100647.50
2023-05-05T10:54:55.916Z,100637.13
2023-05-05T10:57:58.595Z,100627.13
2023-05-05T11:01:01.408Z,100634.28
2023-05-05T11:04:20.394Z,100624.03
2023-05-05T11:07:24.089Z,100616.97
2023-05-05T11:10:27.068Z,100619.31
2023-05-05T11:13:30.291Z,100608.16
2023-05-05T11:16:48.006Z,100616.16
2023-05-05T11:19:52.396Z,100617.84
2023-05-05T11:23:04.292Z,100616.25
2023-05-05T11:26:07.362Z,100604.84
2023-05-05T11:29:10.011Z,100603.56
2023-05-05T11:32:16.080Z,100606.47
2023-05-05T11:35:18.948Z,100596.28
2023-05-05T11:38:43.244Z,100599.16
2023-05-05T11:42:10.996Z,100592.66
2023-05-05T11:45:24.099Z,100576.75
2023-05-05T11:48:27.498Z,100587.69
2023-05-05T11:51:31.112Z,100581.47
2023-05-05T11:54:36.807Z,100589.97
2023-05-05T11:57:39.633Z,100587.34
2023-05-05T12:00:42.938Z,100589.72
2023-05-05T12:03:46.280Z,100566.16
2023-05-05T12:06:49.306Z,100537.03
2023-05-05T12:09:52.359Z,100555.66
2023-05-05T12:12:55.657Z,100585.47
2023-05-05T12:16:14.415Z,100572.22
2023-05-05T12:19:17.214Z,100581.44
2023-05-05T12:22:20.810Z,100543.50
2023-05-05T12:25:23.817Z,100557.56
2023-05-05T12:28:42.628Z,100536.81
2023-05-05T12:31:45.458Z,100508.78
2023-05-05T12:34:49.287Z,100514.72
2023-05-05T12:37:52.022Z,100511.00
2023-05-05T12:40:56.155Z,100524.41
2023-05-05T12:43:59.724Z,100530.91
2023-05-05T12:47:02.560Z,100553.38
2023-05-05T12:50:06.010Z,100500.28
2023-05-05T12:53:09.203Z,100501.03
2023-05-05T12:56:34.851Z,100479.00
2023-05-05T12:59:37.810Z,100537.50
2023-05-05T13:02:40.661Z,100533.09
2023-05-05T13:05:43.578Z,100528.06
2023-05-05T13:08:46.373Z,100477.94
2023-05-05T13:11:49.252Z,100490.31
2023-05-05T13:14:51.975Z,100468.44
2023-05-05T13:18:01.740Z,100508.78
2023-05-05T13:21:04.752Z,100497.69
2023-05-05T13:24:23.482Z,100468.38
2023-05-05T13:27:28.736Z,100474.94
2023-05-05T13:30:31.466Z,100473.97
2023-05-05T13:33:35.235Z,100458.63
2023-05-05T13:36:38.131Z,100448.88
2023-05-05T13:39:41.121Z,100485.59
2023-05-05T13:42:44.271Z,100443.56
2023-05-05T13:45:47.160Z,100473.09
2023-05-05T13:48:52.486Z,100459.88
2023-05-05T13:51:59.297Z,100422.28
2023-05-05T13:55:01.970Z,100464.22
2023-05-05T13:58:04.810Z,100442.53
2023-05-05T14:01:07.766Z,100432.13
2023-05-05T14:04:10.881Z,100486.84
2023-05-05T14:07:13.911Z,100449.81
2023-05-05T14:10:16.839Z,100444.09
2023-05-05T14:13:21.954Z,100414.25
2023-05-05T14:16:25.111Z,100424.22
2023-05-05T14:19:28.180Z,100435.03
2023-05-05T14:22:31.358Z,100461.75
2023-05-05T14:25:34.323Z,100437.03
2023-05-05T14:28:37.231Z,100418.50
2023-05-05T14:31:40.266Z,100419.56
2023-05-05T14:34:43.077Z,100392.72
2023-05-05T14:37:45.901Z,100414.16
2023-05-05T14:40:48.742Z,100399.22
2023-05-05T14:43:51.453Z,100404.13
2023-05-05T14:46:54.553Z,100399.97
2023-05-05T14:49:57.265Z,100401.84
2023-05-05T14:53:00.149Z,100421.28
2023-05-05T14:56:03.035Z,100406.72
2023-05-05T14:59:05.996Z,100407.31
2023-05-05T15:02:08.854Z,100415.44
2023-05-05T15:05:12.086Z,100380.16
2023-05-05T15:08:15.571Z,100401.66
2023-05-05T15:11:18.463Z,100400.91
2023-05-05T15:14:21.349Z,100383.84
2023-05-05T15:17:24.159Z,100376.59
2023-05-05T15:20:27.046Z,100369.13
2023-05-05T15:23:29.993Z,100384.03
2023-05-05T15:26:32.993Z,100371.97
2023-05-05T15:29:35.777Z,100362.31
2023-05-05T15:32:38.802Z,100383.13
2023-05-05T15:35:41.763Z,100372.94
2023-05-05T15:38:44.639Z,100382.03
2023-05-05T15:41:47.443Z,100393.78
2023-05-05T15:44:50.745Z,100353.41
2023-05-05T15:47:54.104Z,100380.94
2023-05-05T15:50:59.861Z,100350.63
2023-05-05T15:54:02.748Z,100391.66
2023-05-05T15:57:05.645Z,100370.34
2023-05-05T16:00:16.038Z,100382.25
2023-05-05T16:03:21.148Z,100400.47
2023-05-05T16:06:27.495Z,100349.28
2023-05-05T16:09:30.536Z,100351.78
2023-05-05T16:12:33.527Z,100354.16
2023-05-05T16:15:36.340Z,100386.44
2023-05-05T16:18:39.079Z,100342.69
2023-05-05T16:21:41.926Z,100326.06
2023-05-05T16:24:44.923Z,100338.19
2023-05-05T16:27:47.786Z,100333.31
2023-05-05T16:30:50.530Z,100374.91
2023-05-05T16:33:53.588Z,100313.03
2023-05-05T16:36:56.806Z,100339.47
2023-05-05T16:40:01.417Z,100370.22
2023-05-05T16:43:07.622Z,100318.78
2023-05-05T16:46:10.457Z,100363.88
2023-05-05T16:49:13.386Z,100360.91
2023-05-05T16:52:16.312Z,100331.03
2023-05-05T16:55:19.370Z,100369.88
2023-05-05T16:58:25.476Z,100338.88
2023-05-05T17:01:28.630Z,100329.34
2023-05-05T17:04:31.268Z,100332.72
2023-05-05T17:07:33.916Z,100313.31
2023-05-05T17:10:36.930Z,100360.56
2023-05-05T17:13:39.581Z,100367.66
2023-05-05T17:16:42.549Z,100313.25
2023-05-05T17:19:45.534Z,100365.00
2023-05-05T17:22:48.409Z,100349.63
2023-05-05T17:25:51.703Z,100361.97
2023-05-05T17:28:54.472Z,100325.56
2023-05-05T17:31:57.264Z,100333.78
2023-05-05T17:34:59.973Z,100315.75
2023-05-05T17:38:02.810Z,100331.09
2023-05-05T17:41:06.534Z,100324.88
2023-05-05T17:44:09.288Z,100328.78
2023-05-05T17:47:11.993Z,100317.84
2023-05-05T17:50:14.706Z,100362.97
2023-05-05T17:53:17.435Z,100360.16
2023-05-05T17:56:20.352Z,100368.16
2023-05-05T17:59:23.273Z,100310.16
2023-05-05T18:02:26.287Z,100377.75
2023-05-05T18:05:29.998Z,100372.34
2023-05-05T18:08:32.681Z,100316.09
2023-05-05T18:11:35.402Z,100351.56
2023-05-05T18:14:38.083Z,100335.38
2023-05-05T18:17:40.793Z,100368.22
2023-05-05T18:20:44.490Z,100328.84
2023-05-05T18:23:47.226Z,100324.41
2023-05-05T18:26:51.211Z,100316.78
2023-05-05T18:29:54.125Z,100333.63
2023-05-05T18:32:56.957Z,100368.31
2023-05-05T18:35:59.776Z,100337.50
2023-05-05T18:39:02.718Z,100328.25
2023-05-05T18:42:05.593Z,100306.97
2023-05-05T18:45:09.273Z,100383.59
2023-05-05T18:48:12.229Z,100356.22
2023-05-05T18:51:15.048Z,100317.81
2023-05-05T18:54:17.898Z,100384.94
2023-05-05T18:57:21.367Z,100347.69
2023-05-05T19:00:24.589Z,100324.09
2023-05-05T19:03:27.317Z,100390.22
2023-05-05T19:06:30.247Z,100380.41
2023-05-05T19:09:32.942Z,100354.09
2023-05-05T19:12:36.468Z,100352.63
2023-05-05T19:15:39.226Z,100354.34
2023-05-05T19:18:42.034Z,100324.50
2023-05-05T19:21:45.149Z,100348.88
2023-05-05T19:24:47.886Z,100336.47
2023-05-05T19:27:50.703Z,100344.28
2023-05-05T19:30:53.545Z,100342.56
2023-05-05T19:34:01.362Z,100333.97
2023-05-05T19:37:04.084Z,100354.41
2023-05-05T19:40:07.555Z,100340.19
2023-05-05T19:43:10.515Z,100361.88
2023-05-05T19:46:14.642Z,100371.38
2023-05-05T19:49:17.487Z,100345.50
2023-05-05T19:52:22.728Z,100366.97
2023-05-05T19:55:25.922Z,100358.97
2023-05-05T19:58:28.861Z,100364.66
2023-05-05T20:01:33.099Z,100394.91
2023-05-05T20:04:36.199Z,100356.16
2023-05-05T20:07:38.926Z,100349.09
2023-05-05T20:10:41.772Z,100341.91
2023-05-05T20:13:45.055Z,100327.63
2023-05-05T20:16:48.581Z,100325.91
2023-05-05T20:19:51.654Z,100300.16
2023-05-05T20:22:54.409Z,100305.16
2023-05-05T20:25:57.497Z,100362.00
2023-05-05T20:29:00.306Z,100350.31
2023-05-05T20:32:03.304Z,100306.13
2023-05-05T20:35:06.597Z,100340.91
2023-05-05T20:38:09.944Z,100318.69
2023-05-05T20:41:12.976Z,100300.16
2023-05-05T20:44:15.819Z,100322.34
2023-05-05T20:47:18.643Z,100362.66
2023-05-05T20:50:21.588Z,100316.94
2023-05-05T20:53:25.569Z,100322.34
2023-05-05T20:56:28.438Z,100334.16
2023-05-05T20:59:32.608Z,100329.59
2023-05-05T21:02:35.747Z,100294.91
2023-05-05T21:05:40.215Z,100299.63
2023-05-05T21:08:42.984Z,100338.47
2023-05-05T21:11:45.986Z,100355.75
2023-05-05T21:14:48.848Z,100310.06
2023-05-05T21:17:51.895Z,100317.44
2023-05-05T21:20:54.720Z,100294.31
2023-05-05T21:23:58.225Z,100276.75
2023-05-05T21:27:01.133Z,100291.16
2023-05-05T21:30:07.750Z,100316.19
2023-05-05T21:33:12.326Z,100309.09
2023-05-05T21:36:17.636Z,100309.91
2023-05-05T21:39:20.410Z,100315.06
2023-05-05T21:42:23.192Z,100278.63
2023-05-05T21:45:26.036Z,100298.56
2023-05-05T21:48:28.945Z,100278.69
2023-05-05T21:51:31.788Z,100306.72
2023-05-05T21:54:34.544Z,100290.13
2023-05-05T21:57:37.369Z,100298.50
2023-05-05T22:00:41.688Z,100273.22
2023-05-05T22:03:44.552Z,100301.00
2023-05-05T22:06:47.370Z,100269.47
2023-05-05T22:09:50.205Z,100278.13
2023-05-05T22:12:53.065Z,100295.09
2023-05-05T22:15:55.899Z,100275.69
2023-05-05T22:18:59.114Z,100303.78
2023-05-05T22:22:02.872Z,100284.63
2023-05-05T22:25:06.347Z,100314.13
2023-05-05T22:28:11.575Z,100310.31
2023-05-05T22:31:14.467Z,100305.09
2023-05-05T22:34:18.869Z,100298.13
2023-05-05T22:37:21.668Z,100298.78
2023-05-05T22:40:24.449Z,100294.13
2023-05-05T22:43:27.264Z,100295.59
2023-05-05T22:46:30.391Z,100263.41
2023-05-05T22:49:33.485Z,100296.53
2023-05-05T22:52:36.768Z,100286.28
2023-05-05T22:55:39.669Z,100261.78
2023-05-05T22:58:42.535Z,100290.25
2023-05-05T23:01:45.299Z,100288.41
2023-05-05T23:04:48.264Z,100291.66
2023-05-05T23:07:51.251Z,100286.03
2023-05-05T23:10:54.159Z,100279.53
2023-05-05T23:13:57.275Z,100253.94
2023-05-05T23:17:00.266Z,100295.88
2023-05-05T23:20:04.439Z,100300.94
2023-05-05T23:23:07.292Z,100274.59
2023-05-05T23:26:10.118Z,100278.63
2023-05-05T23:29:12.908Z,100289.38
2023-05-05T23:32:15.928Z,100274.56
2023-05-05T23:35:19.135Z,100267.19
2023-05-05T23:38:22.011Z,100257.66
2023-05-05T23:41:24.924Z,100308.31
2023-05-05T23:44:27.895Z,100277.00
2023-05-05T23:47:30.799Z,100350.63
2023-05-05T23:50:33.592Z,100276.88
2023-05-05T23:53:36.421Z,100290.22
2023-05-05T23:56:40.880Z,100290.41
2023-05-05T23:59:43.692Z,100287.19
